Bicknell, Utah
Current Conditions -  °F | °C
As of 1:55 AM on Sunday 26 Oct 2014 (Local Time) from KHVE Reporting Station
Clear Clear  
Wind Chill: 68°   Ceiling: Unl
Heat Index: 68°   Visibility: 10mi
Dew Point: 36°   Wind: 15mph
Humidity: 30%   Direction: 200°SSW
Pressure: 30.01"   Gusts: 22mph
Location:  38.34°N, 111.54°W
Report Text: KHVE 260755Z AUTO 20013G19KT 10SM CLR 20/02 A3001 RMK AO2
Loading
Personal Weather Stations






























Interactive Weather Map
Tropical Storm Tracking
New forecast layout! Learn more

10-Day Weather Forecast

Advertisements
Track Severe Weather on mobile